createdAt,value
2019-02-24T00:01:25.915Z,9.33
2019-02-24T00:04:31.706Z,7.53
2019-02-24T00:07:37.489Z,7.60
2019-02-24T00:10:43.245Z,9.20
2019-02-24T00:13:49.028Z,10.10
2019-02-24T00:16:54.828Z,7.70
2019-02-24T00:20:00.610Z,10.63
2019-02-24T00:23:06.446Z,16.37
2019-02-24T00:26:12.208Z,20.20
2019-02-24T00:29:17.984Z,25.27
2019-02-24T00:32:23.739Z,14.00
2019-02-24T00:35:29.593Z,8.20
2019-02-24T00:38:35.357Z,9.90
2019-02-24T00:41:41.114Z,8.77
2019-02-24T00:44:46.878Z,13.33
2019-02-24T00:47:52.628Z,9.00
2019-02-24T00:50:58.394Z,19.67
2019-02-24T00:54:04.150Z,21.23
2019-02-24T00:57:09.934Z,12.67
2019-02-24T01:00:15.903Z,15.20
2019-02-24T01:03:21.790Z,15.83
2019-02-24T01:06:27.554Z,15.63
2019-02-24T01:09:33.369Z,10.87
2019-02-24T01:12:39.136Z,13.57
2019-02-24T01:15:44.901Z,9.77
2019-02-24T01:18:50.667Z,11.50
2019-02-24T01:21:56.488Z,15.03
2019-02-24T01:25:02.293Z,11.30
2019-02-24T01:28:08.139Z,11.37
2019-02-24T01:31:13.910Z,10.23
2019-02-24T01:34:19.671Z,14.77
2019-02-24T01:37:25.415Z,22.20
2019-02-24T01:40:31.198Z,15.43
2019-02-24T01:43:36.955Z,15.23
2019-02-24T01:46:42.956Z,15.47
2019-02-24T01:49:48.707Z,11.27
2019-02-24T01:52:54.537Z,11.20
2019-02-24T01:56:00.362Z,11.50
2019-02-24T01:59:06.167Z,15.27
2019-02-24T02:02:11.940Z,10.43
2019-02-24T02:05:17.867Z,14.57
2019-02-24T02:08:23.623Z,15.13
2019-02-24T02:11:30.511Z,18.03
2019-02-24T02:14:36.362Z,16.83
2019-02-24T02:17:42.127Z,13.93
2019-02-24T02:20:47.899Z,15.30
2019-02-24T02:23:53.671Z,19.93
2019-02-24T02:26:59.459Z,13.13
2019-02-24T02:30:05.887Z,19.53
2019-02-24T02:33:12.675Z,14.00
2019-02-24T02:36:18.446Z,14.17
2019-02-24T02:39:24.221Z,11.27
2019-02-24T02:42:29.988Z,13.43
2019-02-24T02:45:35.746Z,10.40
2019-02-24T02:48:41.635Z,11.77
2019-02-24T02:51:47.412Z,13.93
2019-02-24T02:54:53.426Z,20.07
2019-02-24T02:58:00.190Z,18.10
2019-02-24T03:01:06.087Z,19.57
2019-02-24T03:04:11.930Z,18.73
2019-02-24T03:07:42.716Z,19.97
2019-02-24T03:10:48.546Z,16.90
2019-02-24T03:13:54.369Z,16.13
2019-02-24T03:17:00.139Z,20.33
2019-02-24T03:20:06.104Z,18.13
2019-02-24T03:23:11.866Z,14.63
2019-02-24T03:26:17.618Z,16.57
2019-02-24T03:29:23.364Z,13.90
2019-02-24T03:32:29.138Z,15.07
2019-02-24T03:35:34.915Z,14.30
2019-02-24T03:38:40.703Z,14.07
2019-02-24T03:41:46.497Z,17.57
2019-02-24T03:44:52.255Z,10.90
2019-02-24T03:47:58.005Z,15.33
2019-02-24T03:51:03.793Z,13.30
2019-02-24T03:54:09.642Z,12.70
2019-02-24T03:57:15.455Z,13.40
2019-02-24T04:00:21.237Z,12.40
2019-02-24T04:03:27.221Z,17.27
2019-02-24T04:06:32.989Z,10.07
2019-02-24T04:09:38.774Z,12.27
2019-02-24T04:12:44.757Z,12.37
2019-02-24T04:15:50.515Z,11.23
2019-02-24T04:18:56.319Z,13.53
2019-02-24T04:22:02.073Z,11.60
2019-02-24T04:25:07.982Z,9.50
2019-02-24T04:28:13.748Z,17.37
2019-02-24T04:31:19.552Z,13.07
2019-02-24T04:34:25.345Z,15.23
2019-02-24T04:37:31.131Z,12.80
2019-02-24T04:40:37.015Z,16.90
2019-02-24T04:43:42.769Z,12.20
2019-02-24T04:46:48.532Z,15.80
2019-02-24T04:49:54.283Z,16.70
2019-02-24T04:53:01.183Z,14.63
2019-02-24T04:56:07.152Z,18.87
2019-02-24T04:59:12.951Z,16.93
2019-02-24T05:02:18.705Z,16.57
2019-02-24T05:05:24.484Z,18.37
2019-02-24T05:08:30.268Z,24.13
2019-02-24T05:11:37.044Z,21.87
2019-02-24T05:14:42.825Z,22.53
2019-02-24T05:17:48.712Z,21.13
2019-02-24T05:20:54.519Z,21.07
2019-02-24T05:24:00.279Z,24.90
2019-02-24T05:27:06.041Z,20.30
2019-02-24T05:30:11.950Z,20.43
2019-02-24T05:33:17.732Z,16.60
2019-02-24T05:36:23.505Z,17.93
2019-02-24T05:39:29.277Z,17.17
2019-02-24T05:42:35.097Z,18.27
2019-02-24T05:45:40.869Z,21.80
2019-02-24T05:48:46.667Z,33.17
2019-02-24T05:51:52.442Z,35.67
2019-02-24T05:54:58.209Z,27.97
2019-02-24T05:58:03.999Z,27.70
2019-02-24T06:01:09.763Z,21.33
2019-02-24T06:04:15.550Z,18.83
2019-02-24T06:07:21.292Z,19.80
2019-02-24T06:10:27.070Z,21.90
2019-02-24T06:13:32.953Z,29.13
2019-02-24T06:16:38.860Z,34.63
2019-02-24T06:19:44.636Z,35.43
2019-02-24T06:22:50.429Z,30.37
2019-02-24T06:25:56.245Z,30.33
2019-02-24T06:29:03.164Z,23.60
2019-02-24T06:32:08.995Z,18.57
2019-02-24T06:35:14.901Z,27.10
2019-02-24T06:38:20.759Z,30.17
2019-02-24T06:41:26.531Z,40.93
2019-02-24T06:44:32.299Z,26.53
2019-02-24T06:47:38.083Z,35.80
2019-02-24T06:51:08.545Z,45.80
2019-02-24T06:54:14.727Z,49.00
2019-02-24T06:57:20.505Z,43.03
2019-02-24T07:00:26.294Z,55.57
2019-02-24T07:03:32.098Z,44.17
2019-02-24T07:06:37.852Z,38.13
2019-02-24T07:09:43.726Z,50.63
2019-02-24T07:12:49.549Z,64.00
2019-02-24T07:15:55.465Z,34.07
2019-02-24T07:19:01.351Z,30.83
2019-02-24T07:22:07.133Z,20.80
2019-02-24T07:25:12.940Z,18.50
2019-02-24T07:28:18.716Z,37.33
2019-02-24T07:31:24.534Z,46.87
2019-02-24T07:34:30.307Z,25.17
2019-02-24T07:37:36.276Z,47.97
2019-02-24T07:40:42.129Z,21.47
2019-02-24T07:43:47.931Z,33.20
2019-02-24T07:46:53.715Z,23.60
2019-02-24T07:49:59.462Z,29.40
2019-02-24T07:53:05.286Z,27.90
2019-02-24T07:56:11.365Z,23.33
2019-02-24T07:59:17.229Z,20.57
2019-02-24T08:02:23.069Z,20.40
2019-02-24T08:05:29.015Z,15.60
2019-02-24T08:08:35.752Z,15.50
2019-02-24T08:11:41.621Z,21.53
2019-02-24T08:14:47.449Z,15.40
2019-02-24T08:17:53.206Z,15.70
2019-02-24T08:20:59.201Z,15.10
2019-02-24T08:24:05.057Z,14.47
2019-02-24T08:27:10.883Z,9.90
2019-02-24T08:30:16.649Z,16.67
2019-02-24T08:33:22.426Z,19.13
2019-02-24T08:36:28.306Z,22.63
2019-02-24T08:39:34.105Z,24.93
2019-02-24T08:42:39.923Z,40.60
2019-02-24T08:45:45.728Z,36.97
2019-02-24T08:48:52.730Z,159.47
2019-02-24T08:51:58.880Z,100.63
2019-02-24T08:55:04.951Z,18.50
2019-02-24T08:58:10.753Z,27.57
2019-02-24T09:01:16.776Z,17.50
2019-02-24T09:04:22.984Z,19.27
2019-02-24T09:07:28.768Z,24.20
2019-02-24T09:10:34.580Z,21.03
2019-02-24T09:13:40.383Z,20.93
2019-02-24T09:16:46.143Z,16.23
2019-02-24T09:19:51.992Z,23.23
2019-02-24T09:22:57.799Z,16.10
2019-02-24T09:26:03.735Z,15.37
2019-02-24T09:29:09.500Z,21.97
2019-02-24T09:32:15.317Z,34.80
2019-02-24T09:35:21.111Z,24.20
2019-02-24T09:38:26.949Z,28.27
2019-02-24T09:41:32.825Z,22.33
2019-02-24T09:44:38.716Z,16.60
2019-02-24T09:47:47.002Z,13.17
2019-02-24T09:50:53.130Z,14.37
2019-02-24T09:53:59.050Z,12.40
2019-02-24T09:57:04.957Z,33.47
2019-02-24T10:00:11.466Z,12.00
2019-02-24T10:03:18.347Z,14.30
2019-02-24T10:06:26.604Z,16.97
2019-02-24T10:09:32.458Z,11.27
2019-02-24T10:12:39.355Z,15.73
2019-02-24T10:15:45.154Z,16.07
2019-02-24T10:18:50.957Z,21.23
2019-02-24T10:21:56.731Z,18.90
2019-02-24T10:25:02.651Z,12.43
2019-02-24T10:28:09.511Z,16.00
2019-02-24T10:31:19.911Z,32.63
2019-02-24T10:34:22.910Z,30.97
2019-02-24T10:37:28.705Z,40.57
2019-02-24T10:40:34.550Z,32.23
2019-02-24T10:43:40.325Z,10.10
2019-02-24T10:46:46.207Z,30.30
2019-02-24T10:49:51.967Z,7.43
2019-02-24T10:52:57.714Z,7.97
2019-02-24T10:56:03.525Z,12.40
2019-02-24T10:59:10.207Z,11.23
2019-02-24T11:02:16.070Z,11.30
2019-02-24T11:05:21.959Z,8.77
2019-02-24T11:08:27.865Z,10.60
2019-02-24T11:11:33.676Z,8.97
2019-02-24T11:14:39.485Z,6.17
2019-02-24T11:17:45.274Z,8.70
2019-02-24T11:20:51.003Z,9.97
2019-02-24T11:23:56.781Z,7.17
2019-02-24T11:27:02.553Z,11.17
2019-02-24T11:30:09.037Z,11.40
2019-02-24T11:33:14.964Z,7.80
2019-02-24T11:36:21.270Z,9.60
2019-02-24T11:39:27.065Z,6.80
2019-02-24T11:42:32.961Z,6.17
2019-02-24T11:45:38.722Z,8.83
2019-02-24T11:48:44.515Z,9.20
2019-02-24T11:51:50.267Z,26.87
2019-02-24T11:54:59.151Z,18.10
2019-02-24T11:58:04.921Z,17.53
2019-02-24T12:01:10.691Z,7.80
2019-02-24T12:04:16.472Z,6.93
2019-02-24T12:07:22.253Z,8.77
2019-02-24T12:10:28.068Z,7.47
2019-02-24T12:13:33.962Z,11.07
2019-02-24T12:16:39.709Z,8.07
2019-02-24T12:19:45.506Z,27.83
2019-02-24T12:22:51.266Z,14.33
2019-02-24T12:25:57.219Z,10.70
2019-02-24T12:29:02.999Z,7.30
2019-02-24T12:32:09.154Z,16.47
2019-02-24T12:35:15.074Z,10.80
2019-02-24T12:38:20.928Z,12.63
2019-02-24T12:41:26.728Z,9.43
2019-02-24T12:44:32.595Z,10.30
2019-02-24T12:47:38.665Z,10.63
2019-02-24T12:50:47.461Z,6.27
2019-02-24T12:53:53.238Z,8.80
2019-02-24T12:56:58.997Z,9.33
2019-02-24T13:00:05.249Z,8.30
2019-02-24T13:03:11.115Z,8.63
2019-02-24T13:06:16.899Z,8.93
2019-02-24T13:09:24.195Z,8.87
2019-02-24T13:12:30.100Z,7.80
2019-02-24T13:15:36.122Z,7.20
2019-02-24T13:18:42.025Z,8.70
2019-02-24T13:21:47.937Z,6.87
2019-02-24T13:24:54.832Z,9.67
2019-02-24T13:28:00.689Z,10.43
2019-02-24T13:31:06.531Z,10.37
2019-02-24T13:34:12.393Z,12.73
2019-02-24T13:37:18.157Z,8.53
2019-02-24T13:40:23.932Z,9.77
2019-02-24T13:43:29.826Z,17.17
2019-02-24T13:46:35.740Z,8.50
2019-02-24T13:49:42.997Z,8.50
2019-02-24T13:52:49.029Z,14.07
2019-02-24T13:55:54.865Z,12.60
2019-02-24T13:59:00.717Z,24.03
2019-02-24T14:02:06.456Z,16.67
2019-02-24T14:05:13.811Z,11.33
2019-02-24T14:08:19.620Z,14.43
2019-02-24T14:11:25.685Z,9.30
2019-02-24T14:14:31.562Z,12.17
2019-02-24T14:17:37.308Z,17.70
2019-02-24T14:20:43.301Z,8.50
2019-02-24T14:23:49.060Z,15.37
2019-02-24T14:26:55.045Z,8.03
2019-02-24T14:30:00.895Z,9.43
2019-02-24T14:33:07.959Z,9.60
2019-02-24T14:36:13.850Z,8.97
2019-02-24T14:39:22.156Z,8.37
2019-02-24T14:42:28.075Z,8.03
2019-02-24T14:45:33.969Z,8.43
2019-02-24T14:48:39.760Z,5.20
2019-02-24T14:51:45.551Z,9.77
2019-02-24T14:54:52.430Z,8.30
2019-02-24T14:57:58.183Z,5.07
2019-02-24T15:01:04.151Z,6.83
2019-02-24T15:04:09.963Z,11.83
2019-02-24T15:07:15.743Z,11.67
2019-02-24T15:10:21.626Z,11.73
2019-02-24T15:13:27.485Z,10.30
2019-02-24T15:16:33.287Z,12.50
2019-02-24T15:19:39.118Z,9.83
2019-02-24T15:22:44.984Z,12.30
2019-02-24T15:25:50.744Z,14.47
2019-02-24T15:28:56.506Z,12.20
2019-02-24T15:32:02.303Z,11.77
2019-02-24T15:35:08.574Z,10.80
2019-02-24T15:38:14.507Z,13.33
2019-02-24T15:41:29.338Z,10.57
2019-02-24T15:44:27.738Z,5.87
2019-02-24T15:47:33.572Z,10.33
2019-02-24T15:50:39.503Z,14.57
2019-02-24T15:53:45.366Z,14.27
2019-02-24T15:56:51.160Z,18.27
2019-02-24T15:59:56.916Z,13.67
2019-02-24T16:03:02.818Z,14.43
2019-02-24T16:06:08.601Z,19.97
2019-02-24T16:09:14.381Z,18.57
2019-02-24T16:12:20.138Z,13.77
2019-02-24T16:15:26.244Z,20.03
2019-02-24T16:18:32.022Z,20.13
2019-02-24T16:21:37.845Z,16.10
2019-02-24T16:24:43.606Z,20.50
2019-02-24T16:27:49.378Z,18.23
2019-02-24T16:30:55.154Z,15.93
2019-02-24T16:34:00.973Z,19.10
2019-02-24T16:37:06.759Z,15.23
2019-02-24T16:40:19.202Z,14.50
2019-02-24T16:43:25.455Z,25.00
2019-02-24T16:46:31.468Z,14.90
2019-02-24T16:49:37.346Z,26.60
2019-02-24T16:52:43.163Z,20.10
2019-02-24T16:55:49.027Z,21.80
2019-02-24T16:58:54.890Z,29.60
2019-02-24T17:02:00.698Z,22.43
2019-02-24T17:05:07.960Z,24.47
2019-02-24T17:08:14.057Z,24.93
2019-02-24T17:11:19.994Z,23.83
2019-02-24T17:14:25.870Z,22.83
2019-02-24T17:17:31.624Z,17.57
2019-02-24T17:20:37.394Z,24.47
2019-02-24T17:23:49.678Z,18.20
2019-02-24T17:26:51.043Z,15.10
2019-02-24T17:29:56.850Z,23.80
2019-02-24T17:33:02.627Z,14.30
2019-02-24T17:36:08.437Z,16.10
2019-02-24T17:39:14.344Z,15.57
2019-02-24T17:42:20.444Z,13.40
2019-02-24T17:45:26.217Z,17.30
2019-02-24T17:48:32.148Z,33.93
2019-02-24T17:51:38.009Z,38.23
2019-02-24T17:54:43.764Z,14.20
2019-02-24T17:57:49.708Z,21.77
2019-02-24T18:01:00.978Z,23.60
2019-02-24T18:04:07.039Z,27.80
2019-02-24T18:07:12.832Z,25.63
2019-02-24T18:10:18.852Z,22.37
2019-02-24T18:13:24.687Z,14.50
2019-02-24T18:16:30.569Z,11.87
2019-02-24T18:19:36.412Z,15.03
2019-02-24T18:22:42.480Z,13.40
2019-02-24T18:25:48.318Z,13.00
2019-02-24T18:28:54.093Z,13.93
2019-02-24T18:32:02.173Z,14.07
2019-02-24T18:35:10.972Z,14.17
2019-02-24T18:38:16.881Z,17.90
2019-02-24T18:41:22.668Z,19.53
2019-02-24T18:44:28.540Z,19.90
2019-02-24T18:47:34.316Z,15.67
2019-02-24T18:50:40.069Z,20.70
2019-02-24T18:53:45.833Z,20.40
2019-02-24T18:56:51.732Z,17.93
2019-02-24T18:59:57.550Z,18.23
2019-02-24T19:03:03.352Z,19.50
2019-02-24T19:06:09.241Z,16.07
2019-02-24T19:09:15.063Z,20.37
2019-02-24T19:12:20.870Z,12.93
2019-02-24T19:15:26.844Z,15.43
2019-02-24T19:18:32.629Z,9.40
2019-02-24T19:21:38.378Z,17.10
2019-02-24T19:24:44.144Z,18.60
2019-02-24T19:27:50.067Z,14.23
2019-02-24T19:30:55.923Z,14.50
2019-02-24T19:34:06.691Z,16.17
2019-02-24T19:37:09.186Z,13.00
2019-02-24T19:40:16.215Z,15.10
2019-02-24T19:43:22.029Z,15.23
2019-02-24T19:46:27.902Z,14.30
2019-02-24T19:49:33.684Z,10.43
2019-02-24T19:52:39.670Z,14.90
2019-02-24T19:55:45.449Z,13.23
2019-02-24T19:58:51.340Z,13.57
2019-02-24T20:01:57.350Z,13.53
2019-02-24T20:05:03.106Z,14.70
2019-02-24T20:08:08.889Z,17.10
2019-02-24T20:11:14.775Z,11.83
2019-02-24T20:14:20.625Z,14.93
2019-02-24T20:17:26.512Z,15.90
2019-02-24T20:20:32.566Z,12.87
2019-02-24T20:23:38.350Z,14.63
2019-02-24T20:26:44.222Z,16.83
2019-02-24T20:29:50.059Z,14.17
2019-02-24T20:32:56.115Z,15.47
2019-02-24T20:36:02.085Z,19.17
2019-02-24T20:39:09.166Z,13.10
2019-02-24T20:42:15.671Z,16.77
2019-02-24T20:45:21.570Z,24.73
2019-02-24T20:48:27.423Z,17.37
2019-02-24T20:51:33.179Z,31.10
2019-02-24T20:54:38.992Z,24.97
2019-02-24T20:57:44.962Z,24.70
2019-02-24T21:00:50.938Z,13.37
2019-02-24T21:03:56.714Z,14.07
2019-02-24T21:07:02.495Z,14.57
2019-02-24T21:10:09.508Z,11.63
2019-02-24T21:13:16.911Z,16.30
2019-02-24T21:16:22.755Z,21.40
2019-02-24T21:19:28.614Z,23.27
2019-02-24T21:22:34.421Z,24.17
2019-02-24T21:25:40.240Z,22.03
2019-02-24T21:28:46.019Z,18.07
2019-02-24T21:31:51.780Z,19.47
2019-02-24T21:34:57.578Z,16.93
2019-02-24T21:38:03.398Z,25.53
2019-02-24T21:41:09.161Z,16.27
2019-02-24T21:44:14.957Z,20.43
2019-02-24T21:47:20.722Z,14.33
2019-02-24T21:50:26.622Z,11.97
2019-02-24T21:53:32.423Z,10.23
2019-02-24T21:56:40.161Z,13.23
2019-02-24T21:59:45.654Z,17.23
2019-02-24T22:02:51.559Z,16.73
2019-02-24T22:05:57.358Z,65.63
2019-02-24T22:09:03.320Z,80.27
2019-02-24T22:12:10.676Z,86.53
2019-02-24T22:15:17.895Z,54.70
2019-02-24T22:18:24.112Z,36.00
2019-02-24T22:21:30.069Z,26.80
2019-02-24T22:24:35.871Z,20.80
2019-02-24T22:27:41.627Z,24.50
2019-02-24T22:30:47.429Z,27.47
2019-02-24T22:33:53.344Z,33.27
2019-02-24T22:36:59.127Z,49.90
2019-02-24T22:40:06.875Z,51.70
2019-02-24T22:43:12.639Z,58.70
2019-02-24T22:46:18.402Z,39.53
2019-02-24T22:49:24.186Z,44.40
2019-02-24T22:52:29.945Z,32.47
2019-02-24T22:55:35.714Z,26.20
2019-02-24T22:58:41.512Z,32.50
2019-02-24T23:01:49.329Z,40.23
2019-02-24T23:04:55.587Z,43.33
2019-02-24T23:08:01.466Z,29.63
2019-02-24T23:11:08.792Z,26.33
2019-02-24T23:14:14.760Z,33.03
2019-02-24T23:17:20.635Z,22.07
2019-02-24T23:20:26.411Z,21.30
2019-02-24T23:23:32.190Z,20.50
2019-02-24T23:26:37.958Z,17.40
2019-02-24T23:29:43.731Z,21.30
2019-02-24T23:32:49.504Z,38.13
2019-02-24T23:35:57.403Z,26.57
2019-02-24T23:39:02.969Z,24.43
2019-02-24T23:42:10.303Z,26.87
2019-02-24T23:45:16.202Z,28.77
2019-02-24T23:48:21.992Z,25.97
2019-02-24T23:51:27.762Z,23.17
2019-02-24T23:54:33.528Z,27.87
2019-02-24T23:57:40.412Z,21.53
